sensor_id;sensor_type;location;lat;lon;timestamp;temperature;humidity
23813;DHT22;12087;45.190;5.688;2024-01-27T00:04:20;9.60;99.90
23813;DHT22;12087;45.190;5.688;2024-01-27T00:09:42;9.50;99.90
23813;DHT22;12087;45.190;5.688;2024-01-27T00:15:07;9.40;99.90
23813;DHT22;12087;45.190;5.688;2024-01-27T00:20:29;9.40;99.90
23813;DHT22;12087;45.190;5.688;2024-01-27T00:25:52;9.30;99.90
23813;DHT22;12087;45.190;5.688;2024-01-27T00:31:15;9.20;99.90
23813;DHT22;12087;45.190;5.688;2024-01-27T00:36:37;9.10;99.90
23813;DHT22;12087;45.190;5.688;2024-01-27T00:42:00;9.00;99.90
23813;DHT22;12087;45.190;5.688;2024-01-27T00:47:23;9.00;99.90
23813;DHT22;12087;45.190;5.688;2024-01-27T00:52:46;9.00;99.90
23813;DHT22;12087;45.190;5.688;2024-01-27T00:58:08;8.90;99.90
23813;DHT22;12087;45.190;5.688;2024-01-27T01:03:31;8.80;99.90
23813;DHT22;12087;45.190;5.688;2024-01-27T01:08:53;8.70;99.90
23813;DHT22;12087;45.190;5.688;2024-01-27T01:14:16;8.60;99.90
23813;DHT22;12087;45.190;5.688;2024-01-27T01:19:40;8.50;99.90
23813;DHT22;12087;45.190;5.688;2024-01-27T01:25:03;8.50;99.90
23813;DHT22;12087;45.190;5.688;2024-01-27T01:30:25;8.40;99.90
23813;DHT22;12087;45.190;5.688;2024-01-27T01:35:49;8.30;99.90
23813;DHT22;12087;45.190;5.688;2024-01-27T01:41:11;8.20;99.90
23813;DHT22;12087;45.190;5.688;2024-01-27T01:46:33;8.30;99.90
23813;DHT22;12087;45.190;5.688;2024-01-27T01:51:57;8.20;99.90
23813;DHT22;12087;45.190;5.688;2024-01-27T01:57:21;8.10;99.90
23813;DHT22;12087;45.190;5.688;2024-01-27T02:02:43;8.10;99.90
23813;DHT22;12087;45.190;5.688;2024-01-27T02:08:07;8.00;99.90
23813;DHT22;12087;45.190;5.688;2024-01-27T02:13:30;8.00;99.90
23813;DHT22;12087;45.190;5.688;2024-01-27T02:18:52;7.90;99.90
23813;DHT22;12087;45.190;5.688;2024-01-27T02:24:16;7.90;99.90
23813;DHT22;12087;45.190;5.688;2024-01-27T02:29:38;8.00;99.90
23813;DHT22;12087;45.190;5.688;2024-01-27T02:35:00;7.90;99.90
23813;DHT22;12087;45.190;5.688;2024-01-27T02:40:24;7.90;99.90
23813;DHT22;12087;45.190;5.688;2024-01-27T02:45:47;7.90;99.90
23813;DHT22;12087;45.190;5.688;2024-01-27T02:51:09;8.00;99.90
23813;DHT22;12087;45.190;5.688;2024-01-27T02:56:33;8.10;99.90
23813;DHT22;12087;45.190;5.688;2024-01-27T03:01:55;8.40;99.90
23813;DHT22;12087;45.190;5.688;2024-01-27T03:07:18;8.40;99.90
23813;DHT22;12087;45.190;5.688;2024-01-27T03:12:41;8.40;99.90
23813;DHT22;12087;45.190;5.688;2024-01-27T03:18:04;8.40;99.90
23813;DHT22;12087;45.190;5.688;2024-01-27T03:23:26;8.50;99.90
23813;DHT22;12087;45.190;5.688;2024-01-27T03:28:49;8.60;99.90
23813;DHT22;12087;45.190;5.688;2024-01-27T03:34:12;8.50;99.90
23813;DHT22;12087;45.190;5.688;2024-01-27T03:39:34;8.50;99.90
23813;DHT22;12087;45.190;5.688;2024-01-27T03:44:58;8.40;99.90
23813;DHT22;12087;45.190;5.688;2024-01-27T03:50:20;8.40;99.90
23813;DHT22;12087;45.190;5.688;2024-01-27T03:55:42;8.40;99.90
23813;DHT22;12087;45.190;5.688;2024-01-27T04:01:06;8.30;99.90
23813;DHT22;12087;45.190;5.688;2024-01-27T04:06:28;8.20;99.90
23813;DHT22;12087;45.190;5.688;2024-01-27T04:11:51;8.30;99.90
23813;DHT22;12087;45.190;5.688;2024-01-27T04:17:15;8.30;99.90
23813;DHT22;12087;45.190;5.688;2024-01-27T04:22:37;8.20;99.90
23813;DHT22;12087;45.190;5.688;2024-01-27T04:28:00;8.20;99.90
23813;DHT22;12087;45.190;5.688;2024-01-27T04:33:23;8.10;99.90
23813;DHT22;12087;45.190;5.688;2024-01-27T04:38:45;8.10;99.90
23813;DHT22;12087;45.190;5.688;2024-01-27T04:44:08;8.00;99.90
23813;DHT22;12087;45.190;5.688;2024-01-27T04:49:31;8.00;99.90
23813;DHT22;12087;45.190;5.688;2024-01-27T04:54:53;8.00;99.90
23813;DHT22;12087;45.190;5.688;2024-01-27T05:00:16;7.90;99.90
23813;DHT22;12087;45.190;5.688;2024-01-27T05:05:40;7.90;99.90
23813;DHT22;12087;45.190;5.688;2024-01-27T05:11:03;7.80;99.90
23813;DHT22;12087;45.190;5.688;2024-01-27T05:16:25;7.80;99.90
23813;DHT22;12087;45.190;5.688;2024-01-27T05:21:49;7.70;99.90
23813;DHT22;12087;45.190;5.688;2024-01-27T05:27:11;7.70;99.90
23813;DHT22;12087;45.190;5.688;2024-01-27T05:32:33;7.70;99.90
23813;DHT22;12087;45.190;5.688;2024-01-27T05:37:57;7.70;99.90
23813;DHT22;12087;45.190;5.688;2024-01-27T05:43:19;7.70;99.90
23813;DHT22;12087;45.190;5.688;2024-01-27T05:48:42;7.60;99.90
23813;DHT22;12087;45.190;5.688;2024-01-27T05:54:05;7.70;99.90
23813;DHT22;12087;45.190;5.688;2024-01-27T05:59:29;7.70;99.90
23813;DHT22;12087;45.190;5.688;2024-01-27T06:04:51;7.70;99.90
23813;DHT22;12087;45.190;5.688;2024-01-27T06:10:15;7.70;99.90
23813;DHT22;12087;45.190;5.688;2024-01-27T06:15:39;7.70;99.90
23813;DHT22;12087;45.190;5.688;2024-01-27T06:21:01;7.70;99.90
23813;DHT22;12087;45.190;5.688;2024-01-27T06:26:25;7.80;99.90
23813;DHT22;12087;45.190;5.688;2024-01-27T06:31:47;7.80;99.90
23813;DHT22;12087;45.190;5.688;2024-01-27T06:37:09;7.90;99.90
23813;DHT22;12087;45.190;5.688;2024-01-27T06:42:33;7.90;99.90
23813;DHT22;12087;45.190;5.688;2024-01-27T06:47:55;7.90;99.90
23813;DHT22;12087;45.190;5.688;2024-01-27T06:53:18;8.00;99.90
23813;DHT22;12087;45.190;5.688;2024-01-27T06:58:42;8.10;99.90
23813;DHT22;12087;45.190;5.688;2024-01-27T07:04:04;8.10;99.90
23813;DHT22;12087;45.190;5.688;2024-01-27T07:09:26;8.20;99.90
23813;DHT22;12087;45.190;5.688;2024-01-27T07:14:50;8.20;99.90
23813;DHT22;12087;45.190;5.688;2024-01-27T07:20:13;8.30;99.90
23813;DHT22;12087;45.190;5.688;2024-01-27T07:25:35;8.30;99.90
23813;DHT22;12087;45.190;5.688;2024-01-27T07:30:59;8.30;99.90
23813;DHT22;12087;45.190;5.688;2024-01-27T07:36:21;8.40;99.90
23813;DHT22;12087;45.190;5.688;2024-01-27T07:41:43;8.40;99.90
23813;DHT22;12087;45.190;5.688;2024-01-27T07:47:06;8.40;99.90
23813;DHT22;12087;45.190;5.688;2024-01-27T07:52:29;8.50;99.90
23813;DHT22;12087;45.190;5.688;2024-01-27T07:57:51;8.60;99.90
23813;DHT22;12087;45.190;5.688;2024-01-27T08:03:15;8.70;99.90
23813;DHT22;12087;45.190;5.688;2024-01-27T08:08:37;8.80;99.90
23813;DHT22;12087;45.190;5.688;2024-01-27T08:14:00;8.80;99.90
23813;DHT22;12087;45.190;5.688;2024-01-27T08:19:25;8.90;99.90
23813;DHT22;12087;45.190;5.688;2024-01-27T08:24:47;9.00;99.90
23813;DHT22;12087;45.190;5.688;2024-01-27T08:30:10;9.00;99.90
23813;DHT22;12087;45.190;5.688;2024-01-27T08:35:34;9.00;99.90
23813;DHT22;12087;45.190;5.688;2024-01-27T08:40:56;9.10;99.90
23813;DHT22;12087;45.190;5.688;2024-01-27T08:46:19;9.10;99.90
23813;DHT22;12087;45.190;5.688;2024-01-27T08:51:44;9.20;99.90
23813;DHT22;12087;45.190;5.688;2024-01-27T08:57:06;9.20;99.90
23813;DHT22;12087;45.190;5.688;2024-01-27T09:02:28;9.20;99.90
23813;DHT22;12087;45.190;5.688;2024-01-27T09:07:52;9.30;99.90
23813;DHT22;12087;45.190;5.688;2024-01-27T09:13:14;9.40;99.90
23813;DHT22;12087;45.190;5.688;2024-01-27T09:18:37;9.50;99.90
23813;DHT22;12087;45.190;5.688;2024-01-27T09:24:00;9.50;99.90
23813;DHT22;12087;45.190;5.688;2024-01-27T09:29:24;9.50;99.90
23813;DHT22;12087;45.190;5.688;2024-01-27T09:34:46;9.60;99.90
23813;DHT22;12087;45.190;5.688;2024-01-27T09:40:11;9.60;99.90
23813;DHT22;12087;45.190;5.688;2024-01-27T09:45:34;9.70;99.90
23813;DHT22;12087;45.190;5.688;2024-01-27T09:50:58;9.90;99.90
23813;DHT22;12087;45.190;5.688;2024-01-27T09:56:23;10.00;99.90
23813;DHT22;12087;45.190;5.688;2024-01-27T10:01:46;10.20;99.90
23813;DHT22;12087;45.190;5.688;2024-01-27T10:07:13;10.40;99.90
23813;DHT22;12087;45.190;5.688;2024-01-27T10:12:41;10.60;99.90
23813;DHT22;12087;45.190;5.688;2024-01-27T10:18:07;10.70;99.90
23813;DHT22;12087;45.190;5.688;2024-01-27T10:23:38;10.80;99.90
23813;DHT22;12087;45.190;5.688;2024-01-27T10:29:02;10.80;99.90
23813;DHT22;12087;45.190;5.688;2024-01-27T10:34:24;10.90;99.90
23813;DHT22;12087;45.190;5.688;2024-01-27T10:39:47;11.00;99.90
23813;DHT22;12087;45.190;5.688;2024-01-27T10:45:11;11.10;99.90
23813;DHT22;12087;45.190;5.688;2024-01-27T10:50:38;11.10;99.90
23813;DHT22;12087;45.190;5.688;2024-01-27T10:56:00;11.10;99.90
23813;DHT22;12087;45.190;5.688;2024-01-27T11:01:26;11.20;99.90
23813;DHT22;12087;45.190;5.688;2024-01-27T11:06:52;11.30;99.90
23813;DHT22;12087;45.190;5.688;2024-01-27T11:12:15;11.40;99.90
23813;DHT22;12087;45.190;5.688;2024-01-27T11:17:40;11.50;99.90
23813;DHT22;12087;45.190;5.688;2024-01-27T11:23:09;11.60;99.90
23813;DHT22;12087;45.190;5.688;2024-01-27T11:28:32;11.80;99.90
23813;DHT22;12087;45.190;5.688;2024-01-27T11:33:56;11.90;99.90
23813;DHT22;12087;45.190;5.688;2024-01-27T11:39:24;12.00;99.90
23813;DHT22;12087;45.190;5.688;2024-01-27T11:44:47;12.10;99.90
23813;DHT22;12087;45.190;5.688;2024-01-27T11:50:11;12.20;99.90
23813;DHT22;12087;45.190;5.688;2024-01-27T11:55:33;12.30;99.90
23813;DHT22;12087;45.190;5.688;2024-01-27T12:00:55;12.40;99.90
23813;DHT22;12087;45.190;5.688;2024-01-27T12:06:20;12.50;99.90
23813;DHT22;12087;45.190;5.688;2024-01-27T12:11:42;12.60;99.90
23813;DHT22;12087;45.190;5.688;2024-01-27T12:17:05;12.70;99.90
23813;DHT22;12087;45.190;5.688;2024-01-27T12:22:31;12.90;99.90
23813;DHT22;12087;45.190;5.688;2024-01-27T12:27:54;13.00;99.90
23813;DHT22;12087;45.190;5.688;2024-01-27T12:33:16;13.20;99.90
23813;DHT22;12087;45.190;5.688;2024-01-27T12:38:41;13.20;99.90
23813;DHT22;12087;45.190;5.688;2024-01-27T12:44:04;13.30;99.90
23813;DHT22;12087;45.190;5.688;2024-01-27T12:49:29;13.40;99.90
23813;DHT22;12087;45.190;5.688;2024-01-27T12:54:53;13.50;99.90
23813;DHT22;12087;45.190;5.688;2024-01-27T13:00:16;13.60;99.90
23813;DHT22;12087;45.190;5.688;2024-01-27T13:05:38;13.70;99.90
23813;DHT22;12087;45.190;5.688;2024-01-27T13:11:02;13.80;99.90
23813;DHT22;12087;45.190;5.688;2024-01-27T13:16:24;13.80;99.90
23813;DHT22;12087;45.190;5.688;2024-01-27T13:21:47;13.90;99.90
23813;DHT22;12087;45.190;5.688;2024-01-27T13:27:10;13.90;99.90
23813;DHT22;12087;45.190;5.688;2024-01-27T13:32:33;14.10;99.90
23813;DHT22;12087;45.190;5.688;2024-01-27T13:37:55;14.20;99.90
23813;DHT22;12087;45.190;5.688;2024-01-27T13:43:19;14.30;99.90
23813;DHT22;12087;45.190;5.688;2024-01-27T13:48:41;14.50;99.90
23813;DHT22;12087;45.190;5.688;2024-01-27T13:54:04;14.60;99.90
23813;DHT22;12087;45.190;5.688;2024-01-27T13:59:31;14.70;99.90
23813;DHT22;12087;45.190;5.688;2024-01-27T14:04:54;14.80;99.90
23813;DHT22;12087;45.190;5.688;2024-01-27T14:10:16;14.80;99.90
23813;DHT22;12087;45.190;5.688;2024-01-27T14:15:40;14.90;99.90
23813;DHT22;12087;45.190;5.688;2024-01-27T14:21:02;14.90;99.90
23813;DHT22;12087;45.190;5.688;2024-01-27T14:26:24;15.00;99.90
23813;DHT22;12087;45.190;5.688;2024-01-27T14:31:48;15.10;99.90
23813;DHT22;12087;45.190;5.688;2024-01-27T14:37:10;15.20;99.90
23813;DHT22;12087;45.190;5.688;2024-01-27T14:42:34;15.30;99.90
23813;DHT22;12087;45.190;5.688;2024-01-27T14:47:58;15.30;99.90
23813;DHT22;12087;45.190;5.688;2024-01-27T14:53:20;15.10;99.90
23813;DHT22;12087;45.190;5.688;2024-01-27T14:58:43;14.80;99.90
23813;DHT22;12087;45.190;5.688;2024-01-27T15:04:08;14.60;99.90
23813;DHT22;12087;45.190;5.688;2024-01-27T15:09:30;14.40;99.90
23813;DHT22;12087;45.190;5.688;2024-01-27T15:14:53;14.30;99.90
23813;DHT22;12087;45.190;5.688;2024-01-27T15:20:16;14.10;99.90
23813;DHT22;12087;45.190;5.688;2024-01-27T15:25:39;14.10;99.90
23813;DHT22;12087;45.190;5.688;2024-01-27T15:31:01;13.90;99.90
23813;DHT22;12087;45.190;5.688;2024-01-27T15:36:24;13.90;99.90
23813;DHT22;12087;45.190;5.688;2024-01-27T15:41:47;13.80;99.90
23813;DHT22;12087;45.190;5.688;2024-01-27T15:47:09;13.70;99.90
23813;DHT22;12087;45.190;5.688;2024-01-27T15:52:33;13.60;99.90
23813;DHT22;12087;45.190;5.688;2024-01-27T15:57:55;13.50;99.90
23813;DHT22;12087;45.190;5.688;2024-01-27T16:03:17;13.40;99.90
23813;DHT22;12087;45.190;5.688;2024-01-27T16:08:41;13.30;99.90
23813;DHT22;12087;45.190;5.688;2024-01-27T16:14:03;13.20;99.90
23813;DHT22;12087;45.190;5.688;2024-01-27T16:19:25;13.10;99.90
23813;DHT22;12087;45.190;5.688;2024-01-27T16:24:49;13.00;99.90
23813;DHT22;12087;45.190;5.688;2024-01-27T16:30:12;13.00;99.90
23813;DHT22;12087;45.190;5.688;2024-01-27T16:35:36;12.80;99.90
23813;DHT22;12087;45.190;5.688;2024-01-27T16:41:00;12.70;99.90
23813;DHT22;12087;45.190;5.688;2024-01-27T16:46:23;12.70;99.90
23813;DHT22;12087;45.190;5.688;2024-01-27T16:51:45;12.60;99.90
23813;DHT22;12087;45.190;5.688;2024-01-27T16:57:09;12.50;99.90
23813;DHT22;12087;45.190;5.688;2024-01-27T17:02:31;12.40;99.90
23813;DHT22;12087;45.190;5.688;2024-01-27T17:07:53;12.30;99.90
23813;DHT22;12087;45.190;5.688;2024-01-27T17:13:16;12.30;99.90
23813;DHT22;12087;45.190;5.688;2024-01-27T17:18:39;12.20;99.90
23813;DHT22;12087;45.190;5.688;2024-01-27T17:24:01;12.10;99.90
23813;DHT22;12087;45.190;5.688;2024-01-27T17:29:25;12.00;99.90
23813;DHT22;12087;45.190;5.688;2024-01-27T17:34:47;11.90;99.90
23813;DHT22;12087;45.190;5.688;2024-01-27T17:40:10;11.90;99.90
23813;DHT22;12087;45.190;5.688;2024-01-27T17:45:34;11.80;99.90
23813;DHT22;12087;45.190;5.688;2024-01-27T17:50:56;11.70;99.90
23813;DHT22;12087;45.190;5.688;2024-01-27T17:56:21;11.70;99.90
23813;DHT22;12087;45.190;5.688;2024-01-27T18:01:45;11.50;99.90
23813;DHT22;12087;45.190;5.688;2024-01-27T18:07:07;11.50;99.90
23813;DHT22;12087;45.190;5.688;2024-01-27T18:12:29;11.40;99.90
23813;DHT22;12087;45.190;5.688;2024-01-27T18:17:53;11.40;99.90
23813;DHT22;12087;45.190;5.688;2024-01-27T18:23:15;11.30;99.90
23813;DHT22;12087;45.190;5.688;2024-01-27T18:28:37;11.30;99.90
23813;DHT22;12087;45.190;5.688;2024-01-27T18:34:01;11.20;99.90
23813;DHT22;12087;45.190;5.688;2024-01-27T18:39:23;11.10;99.90
23813;DHT22;12087;45.190;5.688;2024-01-27T18:44:45;11.10;99.90
23813;DHT22;12087;45.190;5.688;2024-01-27T18:50:09;11.00;99.90
23813;DHT22;12087;45.190;5.688;2024-01-27T18:55:32;10.90;99.90
23813;DHT22;12087;45.190;5.688;2024-01-27T19:00:58;10.90;99.90
23813;DHT22;12087;45.190;5.688;2024-01-27T19:06:22;10.80;99.90
23813;DHT22;12087;45.190;5.688;2024-01-27T19:11:44;10.80;99.90
23813;DHT22;12087;45.190;5.688;2024-01-27T19:17:06;10.60;99.90
23813;DHT22;12087;45.190;5.688;2024-01-27T19:22:30;10.60;99.90
23813;DHT22;12087;45.190;5.688;2024-01-27T19:27:52;10.60;99.90
23813;DHT22;12087;45.190;5.688;2024-01-27T19:33:15;10.50;99.90
23813;DHT22;12087;45.190;5.688;2024-01-27T19:38:38;10.40;99.90
23813;DHT22;12087;45.190;5.688;2024-01-27T19:44:01;10.40;99.90
23813;DHT22;12087;45.190;5.688;2024-01-27T19:49:23;10.40;99.90
23813;DHT22;12087;45.190;5.688;2024-01-27T19:54:47;10.30;99.90
23813;DHT22;12087;45.190;5.688;2024-01-27T20:00:10;10.30;99.90
23813;DHT22;12087;45.190;5.688;2024-01-27T20:05:32;10.30;99.90
23813;DHT22;12087;45.190;5.688;2024-01-27T20:10:56;10.20;99.90
23813;DHT22;12087;45.190;5.688;2024-01-27T20:16:19;10.10;99.90
23813;DHT22;12087;45.190;5.688;2024-01-27T20:21:42;10.00;99.90
23813;DHT22;12087;45.190;5.688;2024-01-27T20:27:06;10.00;99.90
23813;DHT22;12087;45.190;5.688;2024-01-27T20:32:28;9.90;99.90
23813;DHT22;12087;45.190;5.688;2024-01-27T20:37:50;9.90;99.90
23813;DHT22;12087;45.190;5.688;2024-01-27T20:43:14;9.80;99.90
23813;DHT22;12087;45.190;5.688;2024-01-27T20:48:36;9.80;99.90
23813;DHT22;12087;45.190;5.688;2024-01-27T20:53:58;9.70;99.90
23813;DHT22;12087;45.190;5.688;2024-01-27T20:59:23;9.70;99.90
23813;DHT22;12087;45.190;5.688;2024-01-27T21:04:45;9.60;99.90
23813;DHT22;12087;45.190;5.688;2024-01-27T21:10:08;9.60;99.90
23813;DHT22;12087;45.190;5.688;2024-01-27T21:15:31;9.50;99.90
23813;DHT22;12087;45.190;5.688;2024-01-27T21:20:55;9.40;99.90
23813;DHT22;12087;45.190;5.688;2024-01-27T21:26:19;9.40;99.90
23813;DHT22;12087;45.190;5.688;2024-01-27T21:31:44;9.30;99.90
23813;DHT22;12087;45.190;5.688;2024-01-27T21:37:06;9.30;99.90
23813;DHT22;12087;45.190;5.688;2024-01-27T21:42:29;9.20;99.90
23813;DHT22;12087;45.190;5.688;2024-01-27T21:48:00;9.30;99.90
23813;DHT22;12087;45.190;5.688;2024-01-27T21:53:26;9.20;99.90
23813;DHT22;12087;45.190;5.688;2024-01-27T21:58:49;9.20;99.90
23813;DHT22;12087;45.190;5.688;2024-01-27T22:04:13;9.10;99.90
23813;DHT22;12087;45.190;5.688;2024-01-27T22:09:35;9.10;99.90
23813;DHT22;12087;45.190;5.688;2024-01-27T22:14:57;9.00;99.90
23813;DHT22;12087;45.190;5.688;2024-01-27T22:20:21;9.10;99.90
23813;DHT22;12087;45.190;5.688;2024-01-27T22:25:43;9.00;99.90
23813;DHT22;12087;45.190;5.688;2024-01-27T22:31:05;9.00;99.90
23813;DHT22;12087;45.190;5.688;2024-01-27T22:36:29;8.90;99.90
23813;DHT22;12087;45.190;5.688;2024-01-27T22:41:51;8.90;99.90
23813;DHT22;12087;45.190;5.688;2024-01-27T22:47:14;8.90;99.90
23813;DHT22;12087;45.190;5.688;2024-01-27T22:52:38;8.90;99.90
23813;DHT22;12087;45.190;5.688;2024-01-27T22:58:00;8.80;99.90
23813;DHT22;12087;45.190;5.688;2024-01-27T23:03:22;8.80;99.90
23813;DHT22;12087;45.190;5.688;2024-01-27T23:08:46;8.80;99.90
23813;DHT22;12087;45.190;5.688;2024-01-27T23:14:08;8.80;99.90
23813;DHT22;12087;45.190;5.688;2024-01-27T23:19:31;8.70;99.90
23813;DHT22;12087;45.190;5.688;2024-01-27T23:24:55;8.70;99.90
23813;DHT22;12087;45.190;5.688;2024-01-27T23:30:17;8.40;99.90
23813;DHT22;12087;45.190;5.688;2024-01-27T23:35:39;8.30;99.90
23813;DHT22;12087;45.190;5.688;2024-01-27T23:41:03;8.20;99.90
23813;DHT22;12087;45.190;5.688;2024-01-27T23:46:25;8.10;99.90
23813;DHT22;12087;45.190;5.688;2024-01-27T23:51:48;7.90;99.90
23813;DHT22;12087;45.190;5.688;2024-01-27T23:57:11;7.70;99.90
